Time;durP1;ratioP1;P1;durP2;ratioP2;P2;SDS_P1;SDS_P2;PMS_P1;PMS_P2;Temp;Humidity;BMP_temperature;BMP_pressure;BME280_temperature;BME280_humidity;BME280_pressure;Samples;Min_cycle;Max_cycle;Signal;HPM_P1;HPM_P2
2021/12/15 00:01:23;;;;;;;13.50;6.40;;;;;;;;;;5114320;28;20492;-72
2021/12/15 00:03:49;;;;;;;9.93;5.40;;;;;;;;;;5113429;28;20122;-74
2021/12/15 00:06:18;;;;;;;9.82;5.13;;;;;;;;;;5114207;28;20482;-75
2021/12/15 00:08:47;;;;;;;9.80;5.63;;;;;;;;;;5095862;28;20520;-74
2021/12/15 00:11:15;;;;;;;8.75;5.18;;;;;;;;;;5114156;28;20540;-75
2021/12/15 00:13:42;;;;;;;11.50;5.05;;;;;;;;;;5095872;28;20028;-73
2021/12/15 00:16:09;;;;;;;9.52;4.88;;;;;;;;;;5114050;28;20030;-74
2021/12/15 00:18:36;;;;;;;9.18;5.00;;;;;;;;;;5114901;28;20110;-78
2021/12/15 00:21:04;;;;;;;10.00;4.82;;;;;;;;;;5114023;28;20028;-75
2021/12/15 00:23:31;;;;;;;8.80;5.40;;;;;;;;;;5095736;28;20053;-74
2021/12/15 00:25:57;;;;;;;13.35;7.85;;;;;;;;;;5114004;28;20103;-74
2021/12/15 00:28:23;;;;;;;13.63;7.38;;;;;;;;;;5113933;28;20066;-77
2021/12/15 00:30:50;;;;;;;12.13;7.30;;;;;;;;;;5113913;28;20027;-73
2021/12/15 00:33:16;;;;;;;16.55;8.45;;;;;;;;;;5113947;28;20030;-74
2021/12/15 00:35:42;;;;;;;13.77;8.32;;;;;;;;;;5113877;28;20024;-71
2021/12/15 00:38:09;;;;;;;15.90;8.98;;;;;;;;;;5095690;28;20024;-71
2021/12/15 00:40:35;;;;;;;17.23;8.65;;;;;;;;;;5095643;28;20115;-72
2021/12/15 00:43:02;;;;;;;16.13;9.25;;;;;;;;;;5095525;28;20034;-74
2021/12/15 00:45:29;;;;;;;16.05;8.98;;;;;;;;;;5114597;28;20031;-73
2021/12/15 00:47:56;;;;;;;14.95;8.13;;;;;;;;;;5113815;28;20067;-74
2021/12/15 00:50:27;;;;;;;11.98;6.95;;;;;;;;;;5113688;28;20020;-75
2021/12/15 00:52:54;;;;;;;10.80;6.28;;;;;;;;;;5114354;28;20065;-74
2021/12/15 00:55:22;;;;;;;14.38;6.05;;;;;;;;;;5113703;28;20581;-75
2021/12/15 00:57:48;;;;;;;12.15;6.22;;;;;;;;;;5095460;28;20031;-74
2021/12/15 01:00:20;;;;;;;11.38;5.80;;;;;;;;;;5113606;28;20035;-76
2021/12/15 01:02:47;;;;;;;12.38;7.35;;;;;;;;;;5095501;28;20026;-75
2021/12/15 01:05:15;;;;;;;10.93;6.15;;;;;;;;;;5095458;28;20511;-75
2021/12/15 01:07:42;;;;;;;12.40;5.95;;;;;;;;;;5095304;28;20042;-75
2021/12/15 01:10:10;;;;;;;9.50;5.15;;;;;;;;;;5113442;28;20047;-76
2021/12/15 01:14:32;;;;;;;9.27;5.60;;;;;;;;;;5095259;28;20032;-74
2021/12/15 01:21:13;;;;;;;8.25;4.47;;;;;;;;;;5117760;28;20452;-75
2021/12/15 01:23:39;;;;;;;8.00;4.30;;;;;;;;;;5117250;28;20475;-75
2021/12/15 01:26:08;;;;;;;8.43;4.47;;;;;;;;;;5117864;28;20024;-76
2021/12/15 01:28:35;;;;;;;9.98;5.40;;;;;;;;;;5098991;28;20065;-76
2021/12/15 01:31:02;;;;;;;9.82;5.22;;;;;;;;;;5117274;28;20070;-75
2021/12/15 01:33:29;;;;;;;13.38;5.75;;;;;;;;;;5117195;28;20118;-76
2021/12/15 01:35:56;;;;;;;11.23;6.22;;;;;;;;;;5117099;28;20015;-75
2021/12/15 01:38:24;;;;;;;11.63;6.50;;;;;;;;;;5117631;28;20051;-76
2021/12/15 01:40:51;;;;;;;12.40;6.70;;;;;;;;;;5117039;28;20038;-75
2021/12/15 01:43:27;;;;;;;16.05;8.48;;;;;;;;;;5116967;28;20047;-73
2021/12/15 01:48:41;;;;;;;20.63;10.10;;;;;;;;;;5117218;28;20038;-75
2021/12/15 01:51:10;;;;;;;16.58;9.30;;;;;;;;;;5098529;28;20077;-74
2021/12/15 01:53:37;;;;;;;16.65;9.25;;;;;;;;;;5098464;28;20399;-76
2021/12/15 01:56:04;;;;;;;13.40;6.78;;;;;;;;;;5116694;28;20024;-74
2021/12/15 01:58:31;;;;;;;15.27;8.13;;;;;;;;;;5116706;28;20031;-73
2021/12/15 02:01:03;;;;;;;15.43;7.53;;;;;;;;;;5116665;28;20023;-76
2021/12/15 02:03:29;;;;;;;16.35;8.18;;;;;;;;;;5099091;28;20036;-76
2021/12/15 02:05:58;;;;;;;15.35;8.45;;;;;;;;;;5098347;28;20080;-75
2021/12/15 02:08:24;;;;;;;15.55;8.27;;;;;;;;;;5116210;28;20035;-73
2021/12/15 02:10:51;;;;;;;14.15;7.82;;;;;;;;;;5098204;28;20498;-76
2021/12/15 02:13:19;;;;;;;15.32;8.05;;;;;;;;;;5116373;28;20035;-74
2021/12/15 02:15:48;;;;;;;14.27;8.00;;;;;;;;;;5098086;28;20126;-72
2021/12/15 02:18:17;;;;;;;12.82;7.65;;;;;;;;;;5098042;28;20024;-74
2021/12/15 02:20:45;;;;;;;14.55;8.43;;;;;;;;;;5097925;28;20055;-74
2021/12/15 02:23:13;;;;;;;12.77;7.30;;;;;;;;;;5097936;28;20024;-74
2021/12/15 02:25:39;;;;;;;14.88;8.55;;;;;;;;;;5097055;28;20046;-73
2021/12/15 02:28:08;;;;;;;15.63;8.57;;;;;;;;;;5097830;28;20036;-74
2021/12/15 02:33:23;;;;;;;15.52;8.50;;;;;;;;;;5116094;28;20044;-74
2021/12/15 02:38:39;;;;;;;15.07;8.50;;;;;;;;;;5116397;28;20034;-76
2021/12/15 02:41:13;;;;;;;14.00;8.48;;;;;;;;;;5097644;28;20027;-71
2021/12/15 02:43:40;;;;;;;18.77;9.90;;;;;;;;;;5116484;28;20024;-74
2021/12/15 02:46:07;;;;;;;16.33;9.23;;;;;;;;;;5116447;28;20019;-73
2021/12/15 02:48:33;;;;;;;20.15;10.32;;;;;;;;;;5115777;28;20028;-74
2021/12/15 02:51:00;;;;;;;18.63;10.02;;;;;;;;;;5115717;28;20016;-74
2021/12/15 02:53:27;;;;;;;19.60;10.32;;;;;;;;;;5116202;28;20034;-75
2021/12/15 02:55:53;;;;;;;21.08;10.65;;;;;;;;;;5115643;28;20020;-73
2021/12/15 02:58:21;;;;;;;16.27;9.10;;;;;;;;;;5115782;28;20031;-73
2021/12/15 03:01:02;;;;;;;18.35;9.57;;;;;;;;;;5097242;28;20032;-74
2021/12/15 03:06:21;;;;;;;18.08;9.10;;;;;;;;;;5115353;28;20072;-72
2021/12/15 03:08:58;;;;;;;15.00;8.80;;;;;;;;;;5115667;28;20043;-74
2021/12/15 03:16:56;;;;;;;15.57;8.60;;;;;;;;;;5115541;28;20489;-74
2021/12/15 03:19:23;;;;;;;16.10;8.32;;;;;;;;;;5096841;28;20065;-74
2021/12/15 03:21:49;;;;;;;16.02;8.60;;;;;;;;;;5115073;28;20031;-74
2021/12/15 03:24:19;;;;;;;14.25;8.15;;;;;;;;;;5115084;28;20558;-74
2021/12/15 03:26:54;;;;;;;12.75;7.28;;;;;;;;;;5096773;28;20542;-74
2021/12/15 03:37:26;;;;;;;16.02;8.82;;;;;;;;;;5114636;28;20429;-75
2021/12/15 03:39:55;;;;;;;15.25;8.15;;;;;;;;;;5096442;28;20031;-76
2021/12/15 03:42:25;;;;;;;16.92;8.85;;;;;;;;;;5114929;28;20022;-73
2021/12/15 03:44:52;;;;;;;17.08;8.40;;;;;;;;;;5096328;28;20383;-74
2021/12/15 03:47:21;;;;;;;14.68;7.80;;;;;;;;;;5114649;28;20051;-72
2021/12/15 03:49:47;;;;;;;13.82;7.88;;;;;;;;;;5114611;28;20035;-72
2021/12/15 03:52:14;;;;;;;14.18;7.78;;;;;;;;;;5115074;28;20023;-73
2021/12/15 03:54:42;;;;;;;15.18;8.10;;;;;;;;;;5114766;28;20099;-73
2021/12/15 03:57:08;;;;;;;13.25;7.85;;;;;;;;;;5114697;28;20019;-74
2021/12/15 03:59:40;;;;;;;13.07;7.68;;;;;;;;;;5114680;28;20028;-75
2021/12/15 04:02:07;;;;;;;14.50;7.50;;;;;;;;;;5114986;28;20098;-75
2021/12/15 04:04:33;;;;;;;12.95;7.22;;;;;;;;;;5114560;28;20027;-74
2021/12/15 04:07:00;;;;;;;12.75;7.30;;;;;;;;;;5114176;28;20480;-76
2021/12/15 04:09:26;;;;;;;13.73;7.50;;;;;;;;;;5114090;28;20049;-75
2021/12/15 04:11:54;;;;;;;11.85;6.95;;;;;;;;;;5114134;28;20027;-73
2021/12/15 04:14:23;;;;;;;14.05;7.38;;;;;;;;;;5114077;28;20468;-74
2021/12/15 04:17:03;;;;;;;14.20;7.30;;;;;;;;;;5096739;28;20027;-74
2021/12/15 04:19:30;;;;;;;13.65;7.22;;;;;;;;;;5095775;28;20092;-75
2021/12/15 04:21:56;;;;;;;12.85;7.35;;;;;;;;;;5114564;28;20093;-73
2021/12/15 04:24:25;;;;;;;15.20;8.25;;;;;;;;;;5114028;28;20483;-75
2021/12/15 04:26:52;;;;;;;15.32;8.32;;;;;;;;;;5095553;28;20042;-75
2021/12/15 04:29:18;;;;;;;15.65;8.20;;;;;;;;;;5095737;28;20024;-77
2021/12/15 04:31:51;;;;;;;14.35;7.75;;;;;;;;;;5114136;28;20043;-73
2021/12/15 04:34:18;;;;;;;15.30;8.50;;;;;;;;;;5096021;28;20494;-74
2021/12/15 04:36:45;;;;;;;13.48;7.65;;;;;;;;;;5114078;28;20442;-72
2021/12/15 04:39:13;;;;;;;18.15;8.70;;;;;;;;;;5095643;28;20050;-75
2021/12/15 04:41:46;;;;;;;14.75;7.72;;;;;;;;;;5095528;28;20031;-75
2021/12/15 04:44:12;;;;;;;16.13;8.07;;;;;;;;;;5095636;28;20031;-74
2021/12/15 04:46:43;;;;;;;17.23;8.65;;;;;;;;;;5095392;28;20023;-72
2021/12/15 04:49:11;;;;;;;17.52;8.05;;;;;;;;;;5096722;28;20092;-73
2021/12/15 04:51:38;;;;;;;16.30;8.70;;;;;;;;;;5099736;28;20460;-73
2021/12/15 04:54:04;;;;;;;16.17;8.10;;;;;;;;;;5117904;28;20103;-73
2021/12/15 04:56:30;;;;;;;15.70;8.13;;;;;;;;;;5099629;28;20034;-72
2021/12/15 04:58:57;;;;;;;14.48;8.23;;;;;;;;;;5118158;28;20024;-72
2021/12/15 05:01:24;;;;;;;15.85;7.10;;;;;;;;;;5117819;28;20060;-73
2021/12/15 05:03:51;;;;;;;14.77;7.57;;;;;;;;;;5118389;28;20020;-75
2021/12/15 05:06:17;;;;;;;19.15;10.18;;;;;;;;;;5117682;28;20020;-72
2021/12/15 05:08:43;;;;;;;22.52;11.02;;;;;;;;;;5082528;28;20052;-74
2021/12/15 05:11:12;;;;;;;20.65;9.70;;;;;;;;;;5099438;28;20028;-72
2021/12/15 05:13:39;;;;;;;18.88;10.13;;;;;;;;;;5099308;28;20026;-73
2021/12/15 05:16:06;;;;;;;17.42;9.73;;;;;;;;;;5117811;28;20027;-74
2021/12/15 05:18:33;;;;;;;18.92;9.90;;;;;;;;;;5117813;28;20026;-72
2021/12/15 05:20:59;;;;;;;17.95;10.10;;;;;;;;;;5117725;28;20040;-73
2021/12/15 05:23:31;;;;;;;19.60;10.05;;;;;;;;;;5099684;28;20023;-73
2021/12/15 05:25:59;;;;;;;18.33;10.15;;;;;;;;;;5099194;28;20024;-73
2021/12/15 05:28:26;;;;;;;17.77;10.05;;;;;;;;;;5117210;28;20043;-73
2021/12/15 05:30:52;;;;;;;15.52;8.60;;;;;;;;;;5117314;28;20488;-73
2021/12/15 05:33:18;;;;;;;15.55;9.20;;;;;;;;;;5117785;28;20032;-72
2021/12/15 05:35:47;;;;;;;16.40;8.57;;;;;;;;;;5117367;28;20060;-72
2021/12/15 05:38:14;;;;;;;16.80;8.05;;;;;;;;;;5117909;28;20065;-72
2021/12/15 05:40:50;;;;;;;12.70;6.93;;;;;;;;;;5091007;28;20832;-76
2021/12/15 05:43:17;;;;;;;11.88;7.07;;;;;;;;;;5072723;28;20542;-72
2021/12/15 05:45:43;;;;;;;15.70;7.82;;;;;;;;;;5090865;28;20498;-72
2021/12/15 05:48:11;;;;;;;12.20;5.88;;;;;;;;;;5072780;28;20016;-73
2021/12/15 05:50:37;;;;;;;11.77;6.25;;;;;;;;;;5072702;28;20028;-74
2021/12/15 05:53:04;;;;;;;14.77;6.85;;;;;;;;;;5072663;28;20025;-71
2021/12/15 05:55:30;;;;;;;14.40;7.03;;;;;;;;;;5072601;28;20021;-75
2021/12/15 05:57:57;;;;;;;13.98;6.88;;;;;;;;;;5091489;28;20032;-73
2021/12/15 06:00:26;;;;;;;12.45;6.70;;;;;;;;;;5090526;28;20115;-72
2021/12/15 06:02:52;;;;;;;16.65;7.38;;;;;;;;;;5072433;28;20082;-74
2021/12/15 06:05:19;;;;;;;15.48;7.63;;;;;;;;;;5106839;28;20154;-75
2021/12/15 06:07:46;;;;;;;14.90;7.97;;;;;;;;;;5090520;28;20154;-72
2021/12/15 06:10:18;;;;;;;13.57;7.30;;;;;;;;;;5072195;28;20388;-72
2021/12/15 06:12:47;;;;;;;17.30;8.70;;;;;;;;;;5090570;28;20021;-72
2021/12/15 06:15:20;;;;;;;20.17;9.02;;;;;;;;;;5072153;28;20424;-72
2021/12/15 06:17:46;;;;;;;13.90;7.35;;;;;;;;;;5072141;28;20354;-72
2021/12/15 06:20:12;;;;;;;16.55;8.48;;;;;;;;;;5090082;28;20115;-72
2021/12/15 06:22:40;;;;;;;17.52;8.40;;;;;;;;;;5090163;28;20052;-71
2021/12/15 06:25:06;;;;;;;16.45;8.45;;;;;;;;;;5071965;28;20091;-72
2021/12/15 06:27:36;;;;;;;16.48;8.70;;;;;;;;;;5090276;28;20042;-71
2021/12/15 06:30:02;;;;;;;17.35;8.05;;;;;;;;;;5090695;28;20028;-74
2021/12/15 06:32:28;;;;;;;17.58;8.25;;;;;;;;;;5090230;28;20043;-72
2021/12/15 06:34:54;;;;;;;20.90;9.02;;;;;;;;;;5071724;28;20035;-72
2021/12/15 06:37:20;;;;;;;21.02;9.52;;;;;;;;;;5072485;28;20031;-73
2021/12/15 06:39:47;;;;;;;18.77;9.05;;;;;;;;;;5089613;28;20056;-76
2021/12/15 06:42:13;;;;;;;15.90;8.50;;;;;;;;;;5090361;28;20012;-73
2021/12/15 06:44:40;;;;;;;15.93;9.15;;;;;;;;;;5066922;28;20511;-72
2021/12/15 07:00:27;;;;;;;18.10;9.45;;;;;;;;;;5075792;28;20413;-73
2021/12/15 07:02:54;;;;;;;16.85;8.98;;;;;;;;;;5057835;28;20021;-73
2021/12/15 07:05:21;;;;;;;17.85;9.48;;;;;;;;;;5057702;28;20028;-72
2021/12/15 07:07:48;;;;;;;20.15;9.30;;;;;;;;;;5057813;28;20021;-72
2021/12/15 07:10:16;;;;;;;19.73;10.32;;;;;;;;;;5057664;28;20060;-72
2021/12/15 07:12:42;;;;;;;19.95;9.82;;;;;;;;;;5075696;28;20025;-73
2021/12/15 07:15:09;;;;;;;17.75;9.73;;;;;;;;;;5075901;28;20032;-73
2021/12/15 07:17:36;;;;;;;29.48;19.17;;;;;;;;;;5057667;28;20028;-73
2021/12/15 07:20:17;;;;;;;18.73;9.63;;;;;;;;;;5057337;28;20040;-75
2021/12/15 07:22:44;;;;;;;15.57;8.63;;;;;;;;;;5075851;28;20366;-74
2021/12/15 07:25:12;;;;;;;13.05;8.30;;;;;;;;;;5075366;28;20392;-73
2021/12/15 07:27:38;;;;;;;17.23;8.30;;;;;;;;;;5057460;28;20362;-74
2021/12/15 07:30:05;;;;;;;15.40;9.18;;;;;;;;;;5057269;28;20040;-73
2021/12/15 07:32:31;;;;;;;19.85;11.40;;;;;;;;;;5057252;28;20017;-73
2021/12/15 07:34:58;;;;;;;99.45;51.40;;;;;;;;;;5057261;28;20370;-73
2021/12/15 07:37:24;;;;;;;42.22;21.05;;;;;;;;;;5057126;28;20017;-72
2021/12/15 07:39:59;;;;;;;16.08;7.10;;;;;;;;;;5074790;28;20064;-73
2021/12/15 07:42:36;;;;;;;13.85;6.63;;;;;;;;;;5056873;28;20024;-73
2021/12/15 07:45:04;;;;;;;11.07;5.55;;;;;;;;;;5075584;28;20025;-73
2021/12/15 07:47:30;;;;;;;11.65;5.63;;;;;;;;;;5057395;28;20086;-74
2021/12/15 07:50:00;;;;;;;11.75;5.70;;;;;;;;;;5056745;28;20025;-73
2021/12/15 07:52:26;;;;;;;9.57;5.50;;;;;;;;;;5074655;28;20025;-73
2021/12/15 07:54:52;;;;;;;9.02;5.03;;;;;;;;;;5056747;28;20540;-73
2021/12/15 07:57:20;;;;;;;13.52;5.43;;;;;;;;;;5056674;28;20397;-72
2021/12/15 07:59:47;;;;;;;11.00;5.28;;;;;;;;;;5056736;28;20081;-72
2021/12/15 08:02:13;;;;;;;9.68;5.35;;;;;;;;;;5056186;28;20047;-73
2021/12/15 08:04:39;;;;;;;9.18;4.55;;;;;;;;;;5074992;28;20032;-73
2021/12/15 08:07:05;;;;;;;7.78;4.07;;;;;;;;;;5074384;28;20016;-72
2021/12/15 08:09:32;;;;;;;6.95;3.70;;;;;;;;;;5056435;28;20039;-72
2021/12/15 08:11:58;;;;;;;8.73;4.30;;;;;;;;;;5056415;28;20091;-72
2021/12/15 08:14:24;;;;;;;7.55;3.90;;;;;;;;;;5056509;28;20030;-72
2021/12/15 08:16:50;;;;;;;9.55;3.90;;;;;;;;;;5074735;28;20108;-72
2021/12/15 08:19:18;;;;;;;9.27;4.38;;;;;;;;;;5056316;28;20477;-73
2021/12/15 08:21:45;;;;;;;7.82;4.32;;;;;;;;;;5056284;28;20024;-72
2021/12/15 08:24:11;;;;;;;7.55;4.00;;;;;;;;;;5055943;28;20075;-73
2021/12/15 08:26:38;;;;;;;7.00;3.70;;;;;;;;;;5056207;28;20032;-72
2021/12/15 08:29:04;;;;;;;7.18;4.25;;;;;;;;;;5055191;28;20127;-74
2021/12/15 08:31:30;;;;;;;8.45;3.97;;;;;;;;;;5074014;28;20024;-73
2021/12/15 08:33:57;;;;;;;8.35;4.53;;;;;;;;;;5073865;28;20047;-73
2021/12/15 08:36:23;;;;;;;8.57;4.55;;;;;;;;;;5074044;28;20012;-72
2021/12/15 08:38:50;;;;;;;10.77;4.78;;;;;;;;;;5073552;28;20049;-72
2021/12/15 08:41:27;;;;;;;7.45;3.72;;;;;;;;;;5073841;28;20477;-73
2021/12/15 08:43:54;;;;;;;11.30;5.00;;;;;;;;;;5055987;28;20048;-74
2021/12/15 08:46:25;;;;;;;12.27;5.65;;;;;;;;;;5055938;28;20473;-73
2021/12/15 08:48:53;;;;;;;11.00;4.32;;;;;;;;;;5055762;28;20094;-73
2021/12/15 08:51:25;;;;;;;13.70;5.85;;;;;;;;;;5056198;28;20086;-73
2021/12/15 08:53:51;;;;;;;10.98;5.07;;;;;;;;;;5055708;28;20469;-73
2021/12/15 08:56:18;;;;;;;8.32;4.28;;;;;;;;;;5055693;28;20029;-73
2021/12/15 08:58:44;;;;;;;9.73;5.03;;;;;;;;;;5073212;28;20027;-73
2021/12/15 09:01:10;;;;;;;11.32;4.97;;;;;;;;;;5055678;28;20038;-73
2021/12/15 09:03:38;;;;;;;10.90;5.32;;;;;;;;;;5055661;28;20074;-73
2021/12/15 09:06:05;;;;;;;15.80;8.02;;;;;;;;;;5055545;28;20051;-72
2021/12/15 09:08:31;;;;;;;19.00;8.73;;;;;;;;;;5055661;28;20028;-73
2021/12/15 09:10:59;;;;;;;22.05;9.85;;;;;;;;;;5055220;28;20115;-73
2021/12/15 09:13:30;;;;;;;18.58;9.52;;;;;;;;;;5072668;28;20025;-73
2021/12/15 09:15:56;;;;;;;17.77;8.55;;;;;;;;;;5055161;28;20366;-73
2021/12/15 09:18:22;;;;;;;17.48;7.72;;;;;;;;;;5073431;28;20469;-73
2021/12/15 09:20:48;;;;;;;16.58;7.95;;;;;;;;;;5055312;28;20123;-73
2021/12/15 09:23:16;;;;;;;15.65;7.90;;;;;;;;;;5055344;28;20028;-73
2021/12/15 09:25:43;;;;;;;17.90;7.95;;;;;;;;;;5055200;28;20388;-73
2021/12/15 09:28:09;;;;;;;11.80;6.47;;;;;;;;;;5055203;28;20110;-73
2021/12/15 09:30:37;;;;;;;14.27;6.63;;;;;;;;;;5055232;28;20528;-73
2021/12/15 09:33:03;;;;;;;9.02;4.82;;;;;;;;;;5055114;28;20128;-74
2021/12/15 09:35:31;;;;;;;10.45;5.10;;;;;;;;;;5055213;28;20025;-74
2021/12/15 09:37:58;;;;;;;9.07;4.25;;;;;;;;;;5055140;28;20366;-74
2021/12/15 09:40:24;;;;;;;14.65;5.05;;;;;;;;;;5034823;28;20132;-76
2021/12/15 09:42:50;;;;;;;11.55;4.40;;;;;;;;;;5031834;28;20532;-73
2021/12/15 10:04:21;;;;;;;13.27;5.72;;;;;;;;;;5032914;28;20049;-75
2021/12/15 10:17:21;;;;;;;9.23;4.00;;;;;;;;;;5032472;28;20061;-74
2021/12/15 10:18:08;;;;;;;13.75;5.10;;;;;;;;;;5033243;28;20148;-74
2021/12/15 10:20:38;;;;;;;14.07;4.90;;;;;;;;;;5031547;28;20383;-73
2021/12/15 10:23:07;;;;;;;15.30;6.05;;;;;;;;;;5031346;28;20099;-75
2021/12/15 10:25:47;;;;;;;13.98;6.85;;;;;;;;;;5033426;28;20037;-73
2021/12/15 10:28:26;;;;;;;16.10;5.97;;;;;;;;;;5036464;28;20446;-74
2021/12/15 10:30:54;;;;;;;14.52;6.82;;;;;;;;;;5035392;28;20026;-74
2021/12/15 10:33:32;;;;;;;14.15;6.03;;;;;;;;;;5036950;28;20462;-75
2021/12/15 10:36:03;;;;;;;16.25;6.93;;;;;;;;;;5035182;28;20028;-75
2021/12/15 10:38:30;;;;;;;14.57;6.60;;;;;;;;;;5035973;28;20021;-76
2021/12/15 10:40:58;;;;;;;14.85;6.63;;;;;;;;;;5057983;28;20040;-74
2021/12/15 10:43:28;;;;;;;13.40;5.75;;;;;;;;;;5076204;28;20161;-74
2021/12/15 10:45:56;;;;;;;10.88;5.35;;;;;;;;;;5058143;28;20080;-75
2021/12/15 10:48:34;;;;;;;11.20;5.50;;;;;;;;;;5058125;28;20420;-75
2021/12/15 10:51:02;;;;;;;11.88;5.38;;;;;;;;;;5058165;28;20408;-74
2021/12/15 10:53:33;;;;;;;10.43;4.70;;;;;;;;;;5075604;28;20027;-74
2021/12/15 10:55:59;;;;;;;13.15;4.90;;;;;;;;;;5057590;28;20036;-73
2021/12/15 10:58:42;;;;;;;8.77;4.50;;;;;;;;;;5076375;28;20031;-76
2021/12/15 11:01:27;;;;;;;9.60;4.35;;;;;;;;;;5058023;28;20039;-74
2021/12/15 11:03:54;;;;;;;12.07;6.25;;;;;;;;;;5075836;28;20024;-74
2021/12/15 11:06:21;;;;;;;12.93;5.50;;;;;;;;;;5075576;28;20033;-75
2021/12/15 11:08:48;;;;;;;12.93;5.93;;;;;;;;;;5075694;28;20355;-75
2021/12/15 11:11:29;;;;;;;13.57;5.85;;;;;;;;;;5057805;28;20103;-74
2021/12/15 11:13:55;;;;;;;15.00;6.57;;;;;;;;;;5057703;28;20123;-74
2021/12/15 11:16:29;;;;;;;14.60;5.43;;;;;;;;;;5057536;28;20073;-75
2021/12/15 11:18:55;;;;;;;12.90;5.82;;;;;;;;;;5057572;28;20039;-76
2021/12/15 11:21:21;;;;;;;17.08;6.03;;;;;;;;;;5056648;28;20064;-74
2021/12/15 11:23:47;;;;;;;13.32;5.57;;;;;;;;;;5075034;28;20032;-73
2021/12/15 11:26:15;;;;;;;10.93;4.72;;;;;;;;;;5057313;28;20025;-74
2021/12/15 11:28:43;;;;;;;15.75;6.10;;;;;;;;;;5075819;28;20105;-74
2021/12/15 11:31:11;;;;;;;15.02;5.47;;;;;;;;;;5075263;28;20020;-75
2021/12/15 11:33:39;;;;;;;12.05;4.47;;;;;;;;;;5057037;28;20115;-73
2021/12/15 11:36:07;;;;;;;13.35;5.82;;;;;;;;;;5055768;28;20037;-74
2021/12/15 11:38:39;;;;;;;9.77;4.60;;;;;;;;;;5056325;28;20024;-74
2021/12/15 11:41:23;;;;;;;14.07;5.05;;;;;;;;;;5056804;28;20028;-74
2021/12/15 11:43:51;;;;;;;13.48;6.15;;;;;;;;;;5075032;28;20024;-74
2021/12/15 11:46:20;;;;;;;11.30;5.15;;;;;;;;;;5074855;28;20031;-75
2021/12/15 11:48:50;;;;;;;14.30;5.75;;;;;;;;;;5056880;28;20033;-75
2021/12/15 11:51:26;;;;;;;12.23;5.35;;;;;;;;;;5056964;28;20017;-74
2021/12/15 11:53:52;;;;;;;13.68;6.63;;;;;;;;;;5057003;28;20031;-75
2021/12/15 11:56:24;;;;;;;14.20;5.30;;;;;;;;;;5056956;28;20033;-74
2021/12/15 11:58:54;;;;;;;10.02;5.22;;;;;;;;;;5056689;28;20028;-74
2021/12/15 12:01:38;;;;;;;16.17;5.38;;;;;;;;;;5075045;28;20024;-75
2021/12/15 12:04:10;;;;;;;13.57;5.82;;;;;;;;;;5056570;28;20032;-74
2021/12/15 12:06:37;;;;;;;8.70;4.70;;;;;;;;;;5056812;28;20017;-75
2021/12/15 12:09:03;;;;;;;13.80;5.68;;;;;;;;;;5056705;28;20028;-74
2021/12/15 12:11:29;;;;;;;13.35;5.88;;;;;;;;;;5074656;28;20427;-75
2021/12/15 12:13:59;;;;;;;15.10;5.15;;;;;;;;;;5074408;28;20489;-74
2021/12/15 12:16:25;;;;;;;13.60;4.85;;;;;;;;;;5056575;28;20477;-75
2021/12/15 12:18:52;;;;;;;13.13;5.13;;;;;;;;;;5056434;28;20389;-74
2021/12/15 12:21:20;;;;;;;10.13;4.50;;;;;;;;;;5056424;28;20024;-75
2021/12/15 12:23:49;;;;;;;14.10;6.15;;;;;;;;;;5056139;28;20025;-76
2021/12/15 12:26:16;;;;;;;13.05;5.50;;;;;;;;;;5056251;28;20029;-75
2021/12/15 12:28:46;;;;;;;15.18;5.57;;;;;;;;;;5056263;28;20027;-75
2021/12/15 12:31:21;;;;;;;11.77;5.25;;;;;;;;;;5056895;28;20400;-73
2021/12/15 12:33:49;;;;;;;12.25;5.13;;;;;;;;;;5056192;28;20086;-75
2021/12/15 12:36:20;;;;;;;12.52;4.60;;;;;;;;;;5073638;28;20035;-75
2021/12/15 12:38:51;;;;;;;15.20;5.10;;;;;;;;;;5055743;28;20024;-74
2021/12/15 12:41:23;;;;;;;10.65;4.38;;;;;;;;;;5074201;28;20024;-72
2021/12/15 12:43:50;;;;;;;10.85;5.35;;;;;;;;;;5056076;28;20094;-74
2021/12/15 12:46:26;;;;;;;10.77;4.75;;;;;;;;;;5074256;28;20035;-75
2021/12/15 12:59:59;;;;;;;11.57;4.75;;;;;;;;;;5073700;28;20052;-73
2021/12/15 13:02:28;;;;;;;12.50;5.40;;;;;;;;;;5055559;28;20016;-75
2021/12/15 13:04:55;;;;;;;20.20;6.88;;;;;;;;;;5073552;28;20025;-72
2021/12/15 13:07:40;;;;;;;11.57;5.18;;;;;;;;;;5055551;28;20185;-73
2021/12/15 13:10:06;;;;;;;8.48;3.67;;;;;;;;;;5055514;28;20036;-74
2021/12/15 13:12:37;;;;;;;10.60;4.20;;;;;;;;;;5055315;28;20021;-73
2021/12/15 13:15:03;;;;;;;8.38;4.32;;;;;;;;;;5055367;28;20388;-74
2021/12/15 13:17:36;;;;;;;11.63;5.00;;;;;;;;;;5055386;28;20029;-73
2021/12/15 13:20:04;;;;;;;17.42;4.55;;;;;;;;;;5055265;28;20037;-72
2021/12/15 13:22:43;;;;;;;10.35;3.85;;;;;;;;;;5055298;28;20020;-75
2021/12/15 13:31:26;;;;;;;16.75;7.55;;;;;;;;;;5030981;28;20030;-74
2021/12/15 13:33:57;;;;;;;14.23;5.90;;;;;;;;;;5065071;28;20508;-74
2021/12/15 13:36:31;;;;;;;16.25;7.78;;;;;;;;;;5073718;28;20103;-74
2021/12/15 13:39:05;;;;;;;21.05;8.43;;;;;;;;;;5047666;28;20604;-72
2021/12/15 13:42:00;;;;;;;16.45;7.85;;;;;;;;;;5031863;28;20037;-74
2021/12/15 13:44:35;;;;;;;15.90;7.60;;;;;;;;;;5033722;28;20022;-74
2021/12/15 13:47:14;;;;;;;16.35;7.85;;;;;;;;;;5033386;28;20071;-76
2021/12/15 13:49:41;;;;;;;16.55;8.05;;;;;;;;;;5033366;28;20025;-70
2021/12/15 13:52:10;;;;;;;17.38;7.80;;;;;;;;;;5033022;28;20018;-72
2021/12/15 13:54:36;;;;;;;17.65;7.55;;;;;;;;;;5033188;28;20032;-74
2021/12/15 13:57:14;;;;;;;17.00;7.53;;;;;;;;;;5031889;28;20492;-73
2021/12/15 14:00:10;;;;;;;16.48;8.35;;;;;;;;;;5033139;28;20539;-73
2021/12/15 14:02:53;;;;;;;18.17;8.23;;;;;;;;;;4966816;28;20178;-74
2021/12/15 14:05:22;;;;;;;15.70;8.10;;;;;;;;;;5036847;28;20120;-71
2021/12/15 14:07:50;;;;;;;15.63;8.15;;;;;;;;;;5035650;28;20386;-73
2021/12/15 14:10:18;;;;;;;18.90;8.85;;;;;;;;;;5035548;28;20078;-74
2021/12/15 14:12:47;;;;;;;19.33;8.35;;;;;;;;;;5036949;28;20030;-76
2021/12/15 14:15:25;;;;;;;18.98;8.93;;;;;;;;;;5037200;28;20099;-72
2021/12/15 14:18:05;;;;;;;18.23;8.63;;;;;;;;;;5037069;28;20033;-74
2021/12/15 14:20:33;;;;;;;18.17;8.52;;;;;;;;;;5036794;28;20045;-74
2021/12/15 14:23:00;;;;;;;16.88;8.07;;;;;;;;;;5035486;28;20025;-75
2021/12/15 14:25:34;;;;;;;13.02;6.38;;;;;;;;;;5035459;28;20036;-72
2021/12/15 14:28:11;;;;;;;13.68;6.13;;;;;;;;;;5036629;28;20181;-73
2021/12/15 14:30:38;;;;;;;21.55;8.82;;;;;;;;;;5036981;28;20086;-74
2021/12/15 14:33:17;;;;;;;17.48;8.00;;;;;;;;;;5036481;28;20033;-75
2021/12/15 14:35:43;;;;;;;18.05;8.15;;;;;;;;;;5036356;28;20024;-74
2021/12/15 14:38:09;;;;;;;17.85;8.48;;;;;;;;;;5036561;28;20032;-74
2021/12/15 14:40:35;;;;;;;17.90;9.10;;;;;;;;;;5035157;28;20136;-73
2021/12/15 14:43:02;;;;;;;21.05;10.13;;;;;;;;;;5036701;28;20018;-73
2021/12/15 14:45:28;;;;;;;17.13;7.85;;;;;;;;;;5035124;28;20029;-75
2021/12/15 14:47:55;;;;;;;19.23;8.32;;;;;;;;;;5036393;28;20030;-75
2021/12/15 14:50:21;;;;;;;16.90;8.00;;;;;;;;;;5036593;28;20084;-76
2021/12/15 14:52:49;;;;;;;23.92;12.18;;;;;;;;;;5034952;28;20026;-74
2021/12/15 14:55:19;;;;;;;18.95;8.82;;;;;;;;;;5036239;28;20367;-73
2021/12/15 14:57:45;;;;;;;23.00;9.48;;;;;;;;;;5034913;28;20057;-72
2021/12/15 15:00:17;;;;;;;20.35;9.63;;;;;;;;;;5036087;28;20029;-73
2021/12/15 15:02:49;;;;;;;24.13;10.82;;;;;;;;;;5036029;28;20032;-73
2021/12/15 15:05:17;;;;;;;31.40;15.32;;;;;;;;;;5036090;28;20022;-72
2021/12/15 15:07:46;;;;;;;26.08;12.02;;;;;;;;;;5035982;28;20037;-75
2021/12/15 15:10:14;;;;;;;24.95;13.10;;;;;;;;;;5034755;28;20026;-74
2021/12/15 15:12:41;;;;;;;24.25;11.90;;;;;;;;;;5036296;28;20163;-74
2021/12/15 15:15:09;;;;;;;20.52;10.00;;;;;;;;;;5035938;28;20068;-72
2021/12/15 15:17:48;;;;;;;23.98;9.13;;;;;;;;;;5036136;28;20106;-75
2021/12/15 15:20:17;;;;;;;18.73;8.65;;;;;;;;;;5036625;28;20038;-76
2021/12/15 15:22:45;;;;;;;21.40;9.23;;;;;;;;;;5036957;28;20032;-75
2021/12/15 15:25:12;;;;;;;21.80;9.73;;;;;;;;;;5034351;28;20029;-75
2021/12/15 15:27:39;;;;;;;20.75;9.63;;;;;;;;;;5034349;28;20022;-75
2021/12/15 15:30:07;;;;;;;23.40;10.07;;;;;;;;;;5034273;28;20083;-75
2021/12/15 15:32:35;;;;;;;19.08;9.65;;;;;;;;;;5035055;28;20036;-77
2021/12/15 15:35:09;;;;;;;25.38;10.93;;;;;;;;;;5035456;28;20022;-72
2021/12/15 15:37:36;;;;;;;23.75;10.05;;;;;;;;;;5034161;28;20030;-74
2021/12/15 15:40:02;;;;;;;24.92;10.52;;;;;;;;;;5034067;28;20433;-72
2021/12/15 15:42:28;;;;;;;21.73;10.43;;;;;;;;;;5033992;28;20024;-71
2021/12/15 15:44:54;;;;;;;20.73;9.82;;;;;;;;;;5033978;28;20386;-72
2021/12/15 15:47:21;;;;;;;19.83;9.95;;;;;;;;;;5033962;28;20033;-72
2021/12/15 15:49:56;;;;;;;24.88;10.35;;;;;;;;;;5033903;28;20116;-72
2021/12/15 15:52:22;;;;;;;24.48;10.48;;;;;;;;;;5033930;28;20045;-72
2021/12/15 15:54:49;;;;;;;20.70;9.77;;;;;;;;;;5033898;28;20029;-73
2021/12/15 15:57:15;;;;;;;22.40;10.50;;;;;;;;;;5033902;28;20045;-74
2021/12/15 15:59:42;;;;;;;22.50;10.00;;;;;;;;;;5033717;28;20033;-75
2021/12/15 16:02:08;;;;;;;20.23;9.70;;;;;;;;;;5033769;28;20037;-75
2021/12/15 16:04:36;;;;;;;23.45;10.57;;;;;;;;;;5033732;28;20477;-74
2021/12/15 16:07:02;;;;;;;21.08;10.32;;;;;;;;;;5033664;28;20053;-74
2021/12/15 16:09:31;;;;;;;23.05;10.80;;;;;;;;;;5033566;28;20103;-73